EDT,Max TemperatureF,Mean TemperatureF,Min TemperatureF,Max Dew PointF,MeanDew PointF,Min DewpointF,Max Humidity, Mean Humidity, Min Humidity, Max Sea Level PressureIn, Mean Sea Level PressureIn, Min Sea Level PressureIn, Max VisibilityMiles, Mean VisibilityMiles, Min VisibilityMiles, Max Wind SpeedMPH, Mean Wind SpeedMPH, Max Gust SpeedMPH,PrecipitationIn, CloudCover, Events, WindDirDegrees
2013-10-1,73,62,51,57,53,49,100,75,49,30.16,30.11,30.06,10,9,4,12,3,14,0.00,3,,234
2013-10-2,77,65,52,60,55,51,93,72,50,30.18,30.13,30.10,10,10,6,5,3,6,0.00,2,,329
2013-10-3,78,66,54,59,56,52,93,72,50,30.16,30.11,30.07,10,8,4,7,2,8,0.00,0,,127
2013-10-4,78,68,58,61,59,56,100,80,60,30.24,30.13,30.08,10,9,4,7,2,7,0.00,2,,234
2013-10-5,80,69,57,61,58,55,93,74,54,30.21,30.11,30.03,10,8,1,9,3,14,0.00,0,,146
2013-10-6,81,72,63,60,58,55,84,65,45,29.99,29.92,29.84,10,10,10,16,8,24,0.00,1,,158
2013-10-7,68,56,43,61,50,41,100,76,51,30.15,29.93,29.76,10,9,3,16,7,23,0.43,5,Rain,288
2013-10-8,64,51,38,43,40,36,93,67,40,30.26,30.22,30.13,10,9,0,15,4,22,0.00,0,Fog,92
2013-10-9,66,55,44,39,37,34,76,53,29,30.29,30.23,30.18,10,10,10,17,6,22,0.00,0,,129
2013-10-10,70,58,46,52,47,36,93,73,53,30.19,30.14,30.04,10,8,2,14,3,17,0.01,6,Rain,360
2013-10-11,66,59,52,57,53,48,93,80,67,30.10,30.04,29.99,10,7,0,14,5,20,0.02,8,Fog-Rain,344
2013-10-12,67,59,51,61,55,50,100,84,68,30.18,30.10,30.01,10,5,0,8,2,10,0.01,8,Fog-Rain,4
2013-10-13,69,63,57,59,57,55,100,82,63,30.30,30.23,30.12,10,7,0,8,2,10,T,8,Fog-Rain,38
2013-10-14,71,64,56,59,56,54,93,77,61,30.32,30.24,30.16,10,10,10,10,3,14,0.00,7,,84
2013-10-15,68,60,52,54,49,45,89,69,48,30.22,30.13,30.05,10,10,10,14,7,18,0.00,1,,141
2013-10-16,65,60,54,56,51,45,84,72,60,30.08,30.00,29.96,10,10,10,13,6,17,T,6,Rain,192
2013-10-17,65,56,47,61,55,45,96,90,84,30.01,29.90,29.77,10,7,1,23,7,29,0.34,8,Rain,232
2013-10-18,60,50,40,44,40,36,93,67,40,30.08,30.02,29.97,10,10,10,10,3,14,0.00,3,,295
2013-10-19,58,50,41,46,42,37,93,77,61,30.00,29.94,29.86,10,10,2,20,7,25,0.05,7,Rain,277
2013-10-20,57,45,32,37,33,28,92,64,35,30.14,30.08,30.00,10,10,7,9,3,14,0.00,1,,277
2013-10-21,65,53,40,38,34,29,65,48,31,30.14,30.05,29.95,10,10,10,15,7,18,0.00,0,,190
2013-10-22,50,46,41,45,41,36,100,78,56,29.99,29.92,29.86,10,5,0,12,3,14,0.01,7,Fog-Rain,321
2013-10-23,46,40,34,43,37,30,96,89,82,30.05,29.84,29.73,10,9,2,22,8,32,0.20,7,Rain-Snow,272
2013-10-24,39,35,31,31,29,24,92,73,54,30.23,30.11,30.01,10,9,2,16,5,24,0.02,8,Snow,285
2013-10-25,40,34,27,30,28,24,92,76,59,30.44,30.33,30.17,10,8,1,13,5,15,0.02,7,Snow,310
2013-10-26,51,38,24,28,23,20,85,57,29,30.38,30.21,30.08,10,10,10,18,7,22,0.00,3,,227
2013-10-27,57,47,37,36,33,30,82,61,40,30.14,30.09,30.03,10,10,10,16,5,24,0.00,3,,265
2013-10-28,56,47,37,50,44,32,92,79,66,30.28,30.23,30.13,10,9,2,9,2,12,0.10,7,Rain,200
2013-10-29,62,57,51,50,48,45,96,76,55,30.36,30.31,30.25,10,5,0,12,3,15,T,6,Fog-Rain,231
2013-10-30,60,57,53,56,53,47,93,83,72,30.25,30.21,30.16,10,7,2,12,5,18,0.29,8,Rain,206
2013-10-31,66,62,57,53,51,48,80,66,52,30.13,29.94,29.63,10,10,10,22,9,32,0.01,5,Rain,166